Mid Ohio Valley Regional Airport
KPKB : now visible

Airfield :











YOU CAN JOIN US ON...

 
LOGIN :

Register | Disclaimer

   EN    FR    IT 

 









Legend :    VFR   Marginal VFR   IFR   Intensive IFR   Very Intensive IFR
Visi :
Ceiling :
>= 8 km
>= 3000ft
5 to 8 km
1000 to 3000 ft
1500m to 5 km
500 to 1000 ft
800 to 1500m
200 to 500 ft
< 800m
< 200 ft
Symbols :   Thunderstorms  Fog  Heavy snow  Heavy precipitations  Wind > 20 kt






- Airport Elevation : 858 ft
- IATA code : PKB


KPKB - Mid Ohio Valley Regional

CURRENT METAR :
  • 150853Z AUTO 00000KT 9SM BKN002 OVC065 17/16 A2992 RMK AO2 SLP128 T01670156 56006 $

EXPIRED METARs :
  • 150830Z AUTO 00000KT 8SM SCT002 OVC065 17/16 A2992 RMK AO2 T01670156 $
  • 150753Z AUTO 00000KT 7SM OVC003 17/16 A2993 RMK AO2 SLP130 T01670161 $
  • 150719Z AUTO 05005KT 8SM OVC004 17/16 A2993 RMK AO2 T01720161 $
  • 150653Z AUTO 04003KT 10SM OVC005 17/16 A2994 RMK AO2 SLP134 T01670161 $

TAF KPKB
Valid from the 15 at 09:00 until the 16 at 06:00 UTC


150913Z 1509/1606 00000KT 6SM BR BKN002
TEMPO 1509/1510 2SM BR
FM151000 00000KT 1SM BR OVC006
FM151300 00000KT 3SM BR SCT006 BKN015
FM151500 05004KT P6SM VCSH SCT012 BKN035
KZID FIR / North America



MET'MAP, your aeronautical weather chart ! - Copyright ORBIFLY December 2007 - Disclaimer

ORBIFLY MET'MAP TEAM :

Programming & Development : Alexandra Zaïnal
Original concept : Baudouin d'Aumeries
Technical & hardware support : Manuel Goepfert
Assistance : Marc-Olivier Méhu




SOURCES & CREDITS :

   NOAA       Earth
Advisory